Time;durP1;ratioP1;P1;durP2;ratioP2;P2;SDS_P1;SDS_P2;PMS_P1;PMS_P2;Temp;Humidity;BMP_temperature;BMP_pressure;BME280_temperature;BME280_humidity;BME280_pressure;Samples;Min_cycle;Max_cycle;Signal;HPM_P1;HPM_P2
2021/12/29 00:00:19;;;;;;;70.37;33.33;;;7.50;99.90;;;7.46;73.87;94290.47;5004577;28;20455;-62
2021/12/29 00:02:46;;;;;;;57.70;31.00;;;7.60;99.90;;;7.44;73.13;94294.22;5002591;28;20866;-64
2021/12/29 00:05:13;;;;;;;62.73;30.17;;;7.50;99.90;;;7.40;73.13;94296.25;5004309;28;20450;-59
2021/12/29 00:07:42;;;;;;;55.77;29.43;;;7.50;99.90;;;7.36;73.77;94292.28;5004494;28;20497;-64
2021/12/29 00:10:11;;;;;;;63.20;29.67;;;7.50;99.90;;;7.33;73.72;94295.16;5004185;28;21004;-60
2021/12/29 00:12:41;;;;;;;57.40;30.63;;;7.50;99.90;;;7.32;73.33;94296.91;5003194;28;20489;-59
2021/12/29 00:15:09;;;;;;;57.80;31.67;;;7.40;99.90;;;7.32;73.83;94291.69;5002973;28;20481;-63
2021/12/29 00:17:38;;;;;;;60.67;30.80;;;7.40;99.90;;;7.32;73.92;94285.66;4996364;28;20482;-59
2021/12/29 00:20:07;;;;;;;56.97;29.80;;;7.50;99.90;;;7.31;73.38;94279.59;4996632;28;20473;-59
2021/12/29 00:22:35;;;;;;;61.10;31.00;;;7.40;99.90;;;7.30;74.30;94288.41;4990181;28;20474;-63
2021/12/29 00:25:04;;;;;;;55.30;29.47;;;7.40;99.90;;;7.30;73.74;94283.16;4994101;28;20451;-63
2021/12/29 00:27:32;;;;;;;56.47;29.93;;;7.40;99.90;;;7.30;73.39;94293.63;4996830;28;20868;-62
2021/12/29 00:29:59;;;;;;;65.97;31.80;;;7.40;99.90;;;7.30;73.98;94300.66;5001185;28;20970;-59
2021/12/29 00:32:27;;;;;;;60.53;31.23;;;7.40;99.90;;;7.29;73.56;94291.16;4999074;28;20570;-58
2021/12/29 00:34:54;;;;;;;56.83;30.40;;;7.40;99.90;;;7.30;73.16;94292.81;4999528;28;21022;-59
2021/12/29 00:37:22;;;;;;;51.93;28.47;;;7.40;99.90;;;7.29;73.94;94288.53;5001670;28;20473;-59
2021/12/29 00:39:49;;;;;;;53.77;29.93;;;7.40;99.90;;;7.28;73.65;94289.47;4997324;28;20455;-61
2021/12/29 00:42:18;;;;;;;54.43;30.57;;;7.40;99.90;;;7.28;73.95;94284.25;4997641;28;20490;-62
2021/12/29 00:44:46;;;;;;;66.10;29.53;;;7.40;99.90;;;7.27;72.89;94285.22;4991319;28;20851;-63
2021/12/29 00:47:13;;;;;;;61.07;29.87;;;7.40;99.90;;;7.26;73.38;94286.19;4993255;28;20864;-63
2021/12/29 00:49:41;;;;;;;60.93;29.23;;;7.40;99.90;;;7.25;73.50;94281.91;4997927;28;20450;-63
2021/12/29 00:52:09;;;;;;;55.77;29.00;;;7.40;99.90;;;7.26;73.04;94288.78;5000660;28;20551;-59
2021/12/29 00:54:37;;;;;;;58.37;30.20;;;7.40;99.90;;;7.26;73.38;94288.78;5004478;28;21044;-63
2021/12/29 00:57:05;;;;;;;57.87;28.47;;;7.40;99.90;;;7.23;73.43;94275.97;5001809;28;20501;-64
2021/12/29 00:59:34;;;;;;;59.10;28.07;;;7.40;99.90;;;7.27;73.35;94274.75;4999692;28;20462;-59
2021/12/29 01:02:01;;;;;;;60.70;30.50;;;7.40;99.90;;;7.26;72.88;94275.72;4999653;28;21057;-63
2021/12/29 01:04:28;;;;;;;48.13;28.37;;;7.40;99.90;;;7.29;72.71;94278.06;4997766;28;20470;-59
2021/12/29 01:06:56;;;;;;;50.77;26.70;;;7.40;99.90;;;7.29;73.39;94275.44;4998310;28;20502;-63
2021/12/29 01:09:23;;;;;;;58.33;29.70;;;7.40;99.90;;;7.29;73.46;94275.44;4995385;28;20509;-59
2021/12/29 01:11:54;;;;;;;66.33;30.30;;;7.40;99.90;;;7.31;72.75;94278.75;4996279;28;20484;-60
2021/12/29 01:14:22;;;;;;;51.80;28.37;;;7.40;99.90;;;7.32;73.04;94272.56;4995273;28;20961;-62
2021/12/29 01:16:52;;;;;;;57.47;29.33;;;7.40;99.90;;;7.32;73.30;94270.75;4999797;28;20479;-63
2021/12/29 01:19:22;;;;;;;50.43;28.63;;;7.40;99.90;;;7.31;72.36;94269.13;4998202;28;20540;-62
2021/12/29 01:21:51;;;;;;;55.77;28.07;;;7.40;99.90;;;7.30;72.86;94271.88;4998823;28;20504;-59
2021/12/29 01:24:18;;;;;;;61.53;28.23;;;7.40;99.90;;;7.29;72.43;94260.56;4998107;28;20450;-64
2021/12/29 01:26:46;;;;;;;56.57;29.20;;;7.40;99.90;;;7.30;73.16;94266.66;4998936;28;20853;-59
2021/12/29 01:29:13;;;;;;;53.40;29.57;;;7.40;99.90;;;7.29;72.57;94264.97;4998323;28;20528;-60
2021/12/29 01:31:41;;;;;;;46.23;28.13;;;7.40;99.90;;;7.29;72.79;94263.19;4992724;28;20929;-63
2021/12/29 01:34:09;;;;;;;57.57;30.60;;;7.40;99.90;;;7.28;72.93;94253.69;4998902;28;20450;-63
2021/12/29 01:36:38;;;;;;;66.43;29.00;;;7.40;99.90;;;7.29;72.62;94259.75;5000444;28;20923;-60
2021/12/29 01:39:09;;;;;;;51.13;27.00;;;7.40;99.90;;;7.30;73.13;94257.00;4995995;28;20442;-62
2021/12/29 01:41:37;;;;;;;49.93;27.67;;;7.40;99.90;;;7.30;72.54;94257.00;4997510;28;20474;-63
2021/12/29 01:44:04;;;;;;;49.70;26.77;;;7.40;99.90;;;7.28;72.08;94250.25;5001212;28;20466;-63
2021/12/29 01:46:32;;;;;;;45.63;27.20;;;7.40;99.90;;;7.27;72.62;94248.59;5003440;28;20474;-60
2021/12/29 01:48:59;;;;;;;38.93;22.23;;;7.40;99.90;;;7.25;72.37;94235.66;5005890;28;21404;-60
2021/12/29 01:51:30;;;;;;;37.97;20.93;;;7.40;99.90;;;7.25;71.56;94237.44;5006229;28;20470;-60
2021/12/29 01:54:14;;;;;;;36.70;20.67;;;7.40;99.70;;;7.23;71.52;94240.19;5002584;28;20449;-59
2021/12/29 01:56:43;;;;;;;35.63;20.83;;;7.40;99.60;;;7.23;71.35;94228.91;5000665;28;20476;-60
2021/12/29 01:59:10;;;;;;;35.33;20.43;;;7.30;99.40;;;7.23;71.42;94228.91;4995644;28;20461;-59
2021/12/29 02:01:37;;;;;;;34.07;18.47;;;7.30;99.50;;;7.22;71.71;94216.78;4996727;28;20561;-63
2021/12/29 02:04:05;;;;;;;32.30;19.77;;;7.30;99.50;;;7.20;71.49;94213.47;5002762;28;20449;-59
2021/12/29 02:06:34;;;;;;;35.27;19.57;;;7.30;99.40;;;7.18;71.54;94208.38;5001457;28;20851;-62
2021/12/29 02:09:01;;;;;;;40.57;21.30;;;7.30;99.40;;;7.16;71.32;94203.28;5001979;28;20449;-62
2021/12/29 02:11:30;;;;;;;32.03;20.00;;;7.30;99.30;;;7.15;71.31;94195.59;5001466;28;21019;-62
2021/12/29 02:13:58;;;;;;;32.87;19.20;;;7.30;99.30;;;7.13;71.38;94180.03;5001804;28;20987;-61
2021/12/29 02:16:26;;;;;;;36.63;19.20;;;7.20;99.30;;;7.12;71.20;94185.41;4999476;28;20561;-59
2021/12/29 02:18:54;;;;;;;33.30;20.20;;;7.20;99.30;;;7.09;71.80;94181.25;4997448;28;20466;-63
2021/12/29 02:21:24;;;;;;;36.13;22.00;;;7.20;99.40;;;7.09;71.41;94185.66;4997222;28;20478;-62
2021/12/29 02:24:17;;;;;;;34.33;20.87;;;7.20;99.60;;;7.09;71.97;94183.88;4996913;28;20447;-62
2021/12/29 02:26:44;;;;;;;36.80;20.93;;;7.20;99.70;;;7.10;72.04;94190.75;4997981;28;20466;-62
2021/12/29 02:29:14;;;;;;;32.23;19.77;;;7.20;99.70;;;7.10;71.95;94192.56;5003406;28;20449;-59
2021/12/29 02:31:41;;;;;;;30.90;18.50;;;7.20;99.70;;;7.09;71.95;94191.72;5002181;28;20986;-59
2021/12/29 02:34:11;;;;;;;32.27;18.90;;;7.20;99.70;;;7.12;72.22;94190.63;5003274;28;20451;-62
2021/12/29 02:36:43;;;;;;;32.80;20.17;;;7.20;99.70;;;7.11;72.25;94189.81;5004274;28;20478;-59
2021/12/29 02:39:13;;;;;;;36.17;21.17;;;7.20;99.70;;;7.11;72.07;94189.81;5005708;28;20484;-62
2021/12/29 02:41:43;;;;;;;24.93;17.87;;;7.20;99.80;;;7.09;71.62;94177.81;5003681;28;20477;-62
2021/12/29 02:44:16;;;;;;;35.63;21.40;;;7.20;99.80;;;7.13;71.57;94182.66;5001812;28;20540;-62
2021/12/29 02:46:43;;;;;;;41.27;22.50;;;7.20;99.70;;;7.13;71.76;94174.81;4996486;28;21600;-61
2021/12/29 02:49:11;;;;;;;33.27;20.70;;;7.20;99.70;;;7.14;71.50;94173.00;5005123;28;20447;-65
2021/12/29 02:51:39;;;;;;;37.20;21.93;;;7.20;99.90;;;7.14;72.15;94173.84;5002516;28;20990;-58
2021/12/29 02:54:07;;;;;;;42.77;22.37;;;7.30;99.70;;;7.14;71.63;94179.06;5005805;28;20463;-59
2021/12/29 02:56:34;;;;;;;28.57;19.23;;;7.30;99.70;;;7.14;72.23;94171.22;5006368;28;20492;-59
2021/12/29 02:59:01;;;;;;;33.07;20.10;;;7.20;99.70;;;7.15;71.73;94170.25;5002732;28;21009;-63
2021/12/29 03:01:29;;;;;;;39.60;21.50;;;7.30;99.80;;;7.17;71.79;94170.97;5004976;28;20847;-60
2021/12/29 03:03:57;;;;;;;32.67;20.87;;;7.30;99.90;;;7.20;71.70;94176.88;5000929;28;20451;-59
2021/12/29 03:06:24;;;;;;;35.13;21.67;;;7.30;99.90;;;7.21;71.73;94170.69;4999696;28;20574;-59
2021/12/29 03:08:53;;;;;;;37.43;22.00;;;7.30;99.80;;;7.20;71.54;94167.22;5003353;28;20536;-59
2021/12/29 03:11:20;;;;;;;33.33;20.03;;;7.30;99.90;;;7.21;72.06;94173.31;4993665;28;20486;-62
2021/12/29 03:13:47;;;;;;;35.50;22.40;;;7.30;99.90;;;7.21;72.29;94168.06;5001605;28;20476;-62
2021/12/29 03:16:15;;;;;;;37.80;22.00;;;7.30;99.90;;;7.22;71.91;94170.56;5004442;28;20470;-59
2021/12/29 03:18:42;;;;;;;40.50;23.10;;;7.30;99.90;;;7.24;72.62;94165.19;5002554;28;20473;-62
2021/12/29 03:21:10;;;;;;;38.23;23.20;;;7.30;99.90;;;7.25;72.41;94159.81;5002518;28;20480;-62
2021/12/29 03:23:37;;;;;;;37.90;23.17;;;7.40;99.90;;;7.27;72.38;94155.25;5003784;28;20459;-62
2021/12/29 03:26:07;;;;;;;44.90;23.80;;;7.40;99.90;;;7.30;72.83;94152.38;5002371;28;20466;-59
2021/12/29 03:28:34;;;;;;;39.10;23.50;;;7.40;99.90;;;7.34;72.78;94152.91;4997474;28;20515;-59
2021/12/29 03:31:01;;;;;;;41.83;24.07;;;7.40;99.90;;;7.38;72.61;94150.88;4999139;28;20478;-60
2021/12/29 03:33:29;;;;;;;44.27;24.27;;;7.50;99.90;;;7.41;72.64;94147.97;4992290;28;20458;-60
2021/12/29 03:36:00;;;;;;;42.23;23.50;;;7.50;99.90;;;7.44;72.63;94148.50;4993268;28;20909;-63
2021/12/29 03:38:31;;;;;;;38.27;22.93;;;7.50;99.90;;;7.45;72.51;94144.94;4996886;28;20665;-59
2021/12/29 03:40:59;;;;;;;32.73;22.33;;;7.50;99.90;;;7.48;72.39;94142.06;4999311;28;20453;-59
2021/12/29 03:43:29;;;;;;;37.80;23.60;;;7.60;99.90;;;7.49;72.60;94146.28;4997377;28;20971;-61
2021/12/29 03:45:57;;;;;;;42.90;24.70;;;7.60;99.90;;;7.52;72.75;94148.63;4999014;28;20451;-62
2021/12/29 03:48:25;;;;;;;36.13;22.87;;;7.60;99.90;;;7.54;72.69;94138.88;5006158;28;20489;-60
2021/12/29 03:50:53;;;;;;;37.57;23.87;;;7.70;99.90;;;7.57;72.82;94137.75;4999079;28;20981;-60
2021/12/29 03:53:20;;;;;;;39.90;23.53;;;7.70;99.90;;;7.59;72.35;94135.84;4997237;28;20447;-63
2021/12/29 03:55:50;;;;;;;45.23;24.07;;;7.70;99.90;;;7.62;73.17;94132.09;5002060;28;20919;-59
2021/12/29 03:58:17;;;;;;;41.00;24.23;;;7.70;99.90;;;7.63;72.43;94139.00;4997438;28;20459;-58
2021/12/29 04:00:47;;;;;;;36.30;23.57;;;7.70;99.90;;;7.66;72.65;94131.69;4994795;28;20451;-63
2021/12/29 04:03:14;;;;;;;45.50;25.53;;;7.80;99.90;;;7.68;73.14;94135.00;5001794;28;20533;-59
2021/12/29 04:05:42;;;;;;;42.57;24.77;;;7.80;99.90;;;7.70;72.72;94127.00;5006860;28;20508;-62
2021/12/29 04:08:09;;;;;;;42.33;24.80;;;7.80;99.90;;;7.72;72.50;94130.31;5003808;28;20993;-62
2021/12/29 04:10:37;;;;;;;41.33;24.20;;;7.80;99.90;;;7.74;72.66;94136.22;5000620;28;20991;-58
2021/12/29 04:13:04;;;;;;;47.90;25.80;;;7.80;99.90;;;7.75;73.00;94131.81;5000046;28;20635;-59
2021/12/29 04:15:31;;;;;;;39.60;25.60;;;7.80;99.90;;;7.76;72.13;94131.69;5002396;28;20469;-60
2021/12/29 04:18:03;;;;;;;36.60;23.40;;;7.80;99.90;;;7.77;72.32;94128.06;5000221;28;20470;-62
2021/12/29 04:23:17;;;;;;;44.27;24.43;;;7.90;99.90;;;7.80;72.59;94126.97;4995110;28;20782;-61
2021/12/29 04:25:48;;;;;;;45.00;23.83;;;7.90;99.90;;;7.80;72.16;94132.22;4993652;28;20569;-61
2021/12/29 04:28:20;;;;;;;44.07;25.37;;;7.90;99.90;;;7.81;72.46;94129.47;4999524;28;20918;-61
2021/12/29 04:30:48;;;;;;;41.30;25.30;;;7.90;99.90;;;7.81;72.34;94129.47;4998424;28;20558;-61
2021/12/29 04:33:16;;;;;;;39.70;23.50;;;7.90;99.90;;;7.83;72.22;94127.50;5001034;28;20473;-60
2021/12/29 04:35:44;;;;;;;39.90;24.37;;;7.90;99.90;;;7.84;72.70;94128.38;5000544;28;20451;-60
2021/12/29 04:38:11;;;;;;;42.63;24.50;;;7.90;99.90;;;7.85;72.64;94130.00;4998195;28;20450;-63
2021/12/29 04:40:38;;;;;;;46.40;23.43;;;7.90;99.90;;;7.87;72.65;94143.78;4999491;28;20454;-59
2021/12/29 04:43:06;;;;;;;41.70;24.30;;;8.00;99.90;;;7.89;72.22;94136.59;5000758;28;20505;-59
2021/12/29 04:45:33;;;;;;;40.00;24.37;;;8.00;99.90;;;7.90;72.43;94138.25;4990425;28;20451;-62
2021/12/29 04:48:01;;;;;;;43.00;25.40;;;8.00;99.90;;;7.90;72.62;94138.25;4996529;28;20496;-59
2021/12/29 04:50:36;;;;;;;43.70;25.77;;;8.00;99.90;;;7.91;72.08;94142.50;5001853;28;20462;-58
2021/12/29 04:53:05;;;;;;;40.80;23.93;;;8.00;99.90;;;7.92;72.08;94136.31;4994985;28;20474;-57
2021/12/29 04:55:32;;;;;;;40.93;24.40;;;8.00;99.90;;;7.93;72.57;94137.13;5002023;28;20450;-60
2021/12/29 04:58:00;;;;;;;42.67;24.60;;;8.00;99.90;;;7.95;72.47;94137.81;5001213;28;20474;-61
2021/12/29 05:00:30;;;;;;;41.70;23.50;;;8.00;99.90;;;7.97;72.20;94146.38;4999113;28;20465;-60
2021/12/29 05:02:58;;;;;;;37.20;22.93;;;8.00;99.90;;;7.97;72.87;94134.09;5001205;28;20478;-62
2021/12/29 05:05:40;;;;;;;36.93;23.80;;;8.00;99.90;;;8.00;72.50;94138.22;4999645;28;20462;-57
2021/12/29 05:08:26;;;;;;;38.67;23.30;;;8.10;99.90;;;8.00;72.41;94139.03;5001176;28;20485;-58
2021/12/29 05:10:55;;;;;;;38.13;24.37;;;8.10;99.90;;;8.05;72.19;94149.09;4993095;28;20467;-60
2021/12/29 05:13:23;;;;;;;42.93;25.10;;;8.10;99.90;;;8.08;72.33;94146.19;4994570;28;20966;-58
2021/12/29 05:15:50;;;;;;;43.13;24.97;;;8.10;99.90;;;8.09;72.84;94145.22;5002848;28;21009;-60
2021/12/29 05:18:18;;;;;;;39.17;23.10;;;8.20;99.90;;;8.12;72.68;94150.19;5004252;28;20464;-60
2021/12/29 05:20:45;;;;;;;43.87;24.53;;;8.20;99.90;;;8.13;72.57;94149.19;5003785;28;20555;-59
2021/12/29 05:23:14;;;;;;;35.93;22.50;;;8.20;99.90;;;8.16;72.83;94148.91;5003578;28;20451;-62
2021/12/29 05:25:41;;;;;;;42.13;25.10;;;8.20;99.90;;;8.18;72.48;94159.25;5001704;28;20457;-61
2021/12/29 05:28:08;;;;;;;46.60;23.80;;;8.20;99.90;;;8.19;72.35;94146.00;5002971;28;20497;-61
2021/12/29 05:30:36;;;;;;;46.90;26.03;;;8.30;99.90;;;8.22;72.17;94147.53;5001085;28;20963;-60
2021/12/29 05:33:03;;;;;;;45.73;25.33;;;8.30;99.90;;;8.24;72.21;94151.66;5003049;28;20499;-60
2021/12/29 05:35:30;;;;;;;42.00;25.40;;;8.30;99.90;;;8.26;72.26;94149.72;4997480;28;20465;-58
2021/12/29 05:37:58;;;;;;;46.47;24.53;;;8.30;99.90;;;8.29;72.14;94150.38;4999933;28;21251;-59
2021/12/29 05:40:27;;;;;;;39.20;24.37;;;8.30;99.90;;;8.30;72.27;94150.25;5000173;28;20443;-59
2021/12/29 05:42:54;;;;;;;37.60;24.63;;;8.40;99.90;;;8.29;72.34;94142.53;4999920;28;20520;-62
2021/12/29 05:45:22;;;;;;;46.17;25.80;;;8.40;99.90;;;8.30;72.39;94149.44;5000187;28;20456;-63
2021/12/29 05:47:49;;;;;;;36.80;23.80;;;8.40;99.90;;;8.30;71.70;94152.06;5007465;28;20476;-60
2021/12/29 05:50:20;;;;;;;39.07;24.87;;;8.40;99.90;;;8.29;71.45;94148.63;5003903;28;20995;-59
2021/12/29 05:52:47;;;;;;;41.47;23.97;;;8.40;99.90;;;8.29;71.85;94155.63;5002471;28;20473;-59
2021/12/29 05:55:15;;;;;;;36.80;22.00;;;8.30;99.90;;;8.25;71.85;94147.25;4997592;28;20455;-59
2021/12/29 05:57:43;;;;;;;37.50;22.93;;;8.40;99.90;;;8.23;71.53;94151.81;5007024;28;20478;-61
2021/12/29 06:00:13;;;;;;;42.30;23.17;;;8.30;99.90;;;8.22;71.84;94150.97;5002093;28;20974;-62
2021/12/29 06:02:41;;;;;;;40.87;22.87;;;8.30;99.90;;;8.23;71.73;94147.38;4996296;28;20478;-59
2021/12/29 06:05:09;;;;;;;37.07;22.00;;;8.30;99.90;;;8.22;71.60;94152.75;5006401;28;20462;-61
2021/12/29 06:07:37;;;;;;;43.80;24.03;;;8.30;99.90;;;8.22;72.51;94148.34;5003862;28;20519;-62
2021/12/29 06:10:06;;;;;;;43.80;23.87;;;8.30;99.90;;;8.25;72.00;94152.47;5001387;28;21023;-61
2021/12/29 06:12:33;;;;;;;40.73;23.50;;;8.30;99.90;;;8.27;71.95;94161.00;5002323;28;20497;-62
2021/12/29 06:15:02;;;;;;;38.10;24.60;;;8.30;99.90;;;8.29;72.25;94148.63;5002129;28;20462;-61
2021/12/29 06:17:29;;;;;;;42.20;24.07;;;8.40;99.90;;;8.31;72.04;94153.72;4998293;28;20470;-61
2021/12/29 06:19:56;;;;;;;41.80;23.60;;;8.40;99.90;;;8.36;72.35;94156.72;4994923;28;20458;-61
2021/12/29 06:22:25;;;;;;;36.47;22.00;;;8.40;99.90;;;8.41;72.41;94157.09;4997480;28;20482;-63
2021/12/29 06:24:52;;;;;;;42.80;25.17;;;8.50;99.90;;;8.45;72.08;94168.97;4995199;28;20476;-59
2021/12/29 06:27:20;;;;;;;43.53;23.83;;;8.50;99.90;;;8.49;72.20;94172.13;4997798;28;20476;-62
2021/12/29 06:29:48;;;;;;;47.83;24.40;;;8.50;99.90;;;8.50;72.24;94182.47;4998318;28;20516;-62
2021/12/29 06:32:16;;;;;;;43.07;23.60;;;8.60;99.90;;;8.52;72.19;94188.41;4998333;28;20482;-62
2021/12/29 06:34:44;;;;;;;36.40;22.60;;;8.60;99.90;;;8.54;71.63;94183.84;5000347;28;20461;-61
2021/12/29 06:37:12;;;;;;;48.10;25.30;;;8.60;99.90;;;8.56;71.70;94186.31;5002805;28;20472;-61
2021/12/29 06:39:40;;;;;;;44.33;25.93;;;8.60;99.90;;;8.57;72.11;94190.59;4995415;28;20475;-61
2021/12/29 06:42:08;;;;;;;41.63;26.10;;;8.60;99.90;;;8.59;72.10;94192.09;5002030;28;20699;-59
2021/12/29 06:44:35;;;;;;;43.80;25.03;;;8.70;99.90;;;8.60;72.17;94187.69;4996403;28;20478;-62
2021/12/29 06:47:03;;;;;;;41.60;25.60;;;8.70;99.90;;;8.63;72.30;94186.56;5004084;28;20470;-60
2021/12/29 06:49:32;;;;;;;47.70;25.87;;;8.70;99.90;;;8.64;72.18;94188.22;5001565;28;20489;-63
2021/12/29 06:52:00;;;;;;;43.73;25.10;;;8.70;99.90;;;8.65;71.90;94200.38;5008199;28;20477;-60
2021/12/29 06:54:27;;;;;;;41.07;24.10;;;8.70;99.90;;;8.66;71.67;94199.38;5001715;28;21046;-60
2021/12/29 06:56:55;;;;;;;48.27;28.60;;;8.70;99.90;;;8.65;71.77;94195.94;5004584;28;20731;-61
2021/12/29 06:59:22;;;;;;;52.97;29.27;;;8.70;99.90;;;8.66;71.21;94199.38;5003261;28;20458;-59
2021/12/29 07:01:49;;;;;;;48.60;25.83;;;8.70;99.80;;;8.68;71.39;94198.28;5003093;28;21040;-62
2021/12/29 07:04:16;;;;;;;47.30;23.20;;;8.70;99.90;;;8.67;71.29;94198.41;5003357;28;20484;-60
2021/12/29 07:06:45;;;;;;;37.10;21.20;;;8.80;99.70;;;8.66;71.25;94199.38;5001081;28;20474;-62
2021/12/29 07:09:13;;;;;;;40.60;23.90;;;8.70;99.70;;;8.66;71.35;94199.38;5002272;28;20528;-61
2021/12/29 07:11:40;;;;;;;38.30;22.00;;;8.70;99.70;;;8.65;71.30;94197.75;4993832;28;20494;-59
2021/12/29 07:14:09;;;;;;;37.80;22.47;;;8.70;99.70;;;8.66;71.50;94199.38;4998619;28;20983;-61
2021/12/29 07:16:37;;;;;;;35.87;22.50;;;8.70;99.70;;;8.66;71.22;94208.09;5004874;28;20458;-63
2021/12/29 07:19:04;;;;;;;38.97;22.07;;;8.70;99.70;;;8.68;71.65;94207.94;5009200;28;20449;-62
2021/12/29 07:21:31;;;;;;;38.70;22.03;;;8.70;99.70;;;8.69;71.35;94202.56;5006388;28;21032;-59
2021/12/29 07:24:00;;;;;;;38.77;22.40;;;8.70;99.70;;;8.69;71.27;94202.56;5000893;28;20458;-60
2021/12/29 07:26:27;;;;;;;39.13;21.30;;;8.80;99.70;;;8.71;71.25;94205.84;4999536;28;20474;-59
2021/12/29 07:28:56;;;;;;;43.47;24.60;;;8.80;99.70;;;8.72;71.19;94215.38;4998668;28;20493;-60
2021/12/29 07:31:25;;;;;;;41.33;22.43;;;8.80;99.70;;;8.73;71.32;94203.09;4999315;28;20479;-60
2021/12/29 07:33:52;;;;;;;40.20;23.77;;;8.80;99.70;;;8.74;71.61;94204.75;4994307;28;20449;-62
2021/12/29 07:36:20;;;;;;;39.77;23.80;;;8.80;99.80;;;8.75;71.54;94206.38;4991025;28;20484;-59
2021/12/29 07:38:47;;;;;;;46.17;26.47;;;8.80;99.70;;;8.75;71.50;94207.22;5000989;28;20459;-64
2021/12/29 07:41:16;;;;;;;42.10;26.13;;;8.80;99.70;;;8.77;71.36;94205.28;4998695;28;20486;-61
2021/12/29 07:43:44;;;;;;;46.83;27.00;;;8.80;99.70;;;8.78;71.66;94203.47;4998195;28;20465;-61
2021/12/29 07:46:13;;;;;;;49.10;25.53;;;8.90;99.80;;;8.78;71.41;94201.69;5001201;28;20577;-61
2021/12/29 07:48:40;;;;;;;46.83;29.27;;;8.90;99.80;;;8.82;71.69;94204.84;5003495;28;20492;-60
2021/12/29 07:51:09;;;;;;;55.03;34.67;;;8.90;99.90;;;8.83;71.74;94201.25;5000649;28;20465;-63
2021/12/29 07:53:37;;;;;;;58.00;35.87;;;8.90;99.90;;;8.85;71.42;94199.31;5001857;28;20464;-62
2021/12/29 07:56:06;;;;;;;62.23;36.83;;;8.90;99.90;;;8.88;71.56;94200.81;4996225;28;20525;-63
2021/12/29 07:58:35;;;;;;;56.13;33.50;;;8.90;99.90;;;8.89;71.63;94203.28;4994742;28;20462;-63
2021/12/29 08:01:03;;;;;;;56.50;32.87;;;8.90;99.90;;;8.91;71.63;94208.38;4995460;28;20485;-60
2021/12/29 08:03:30;;;;;;;48.10;30.10;;;9.00;99.90;;;8.91;71.69;94196.09;4999961;28;20457;-60
2021/12/29 08:05:58;;;;;;;50.93;29.93;;;9.00;99.80;;;8.92;71.32;94205.63;5005321;28;20458;-60
2021/12/29 08:08:26;;;;;;;51.37;29.63;;;9.00;99.90;;;8.93;71.71;94194.13;5004647;28;20466;-60
2021/12/29 08:10:53;;;;;;;59.50;34.93;;;9.00;99.90;;;8.96;71.91;94200.91;5002458;28;20484;-61
2021/12/29 08:13:21;;;;;;;54.63;32.30;;;9.00;99.90;;;8.97;71.76;94197.31;5007014;28;20450;-61
2021/12/29 08:15:50;;;;;;;58.33;32.87;;;9.00;99.90;;;8.99;71.84;94202.41;4999586;28;20450;-63
2021/12/29 08:18:17;;;;;;;51.83;31.07;;;9.00;99.90;;;9.01;71.61;94201.28;4999499;28;20803;-61
2021/12/29 08:20:45;;;;;;;51.40;32.53;;;9.00;99.90;;;9.03;71.52;94201.97;4997300;28;21054;-62
2021/12/29 08:23:12;;;;;;;60.33;31.83;;;9.10;99.90;;;9.05;72.03;94202.63;4999077;28;20470;-61
2021/12/29 08:25:40;;;;;;;51.50;31.83;;;9.10;99.90;;;9.07;72.14;94205.13;4997628;28;20457;-58
2021/12/29 08:28:07;;;;;;;53.00;32.07;;;9.10;99.90;;;9.09;71.78;94203.16;4997512;28;20466;-59
2021/12/29 08:30:35;;;;;;;59.17;31.50;;;9.10;99.90;;;9.11;71.64;94204.69;5002940;28;20492;-61
2021/12/29 08:33:04;;;;;;;56.97;31.83;;;9.20;99.90;;;9.13;71.74;94204.53;5000750;28;20469;-57
2021/12/29 08:35:32;;;;;;;56.37;34.43;;;9.20;99.90;;;9.14;72.01;94199.13;5002138;28;20537;-61
2021/12/29 08:37:59;;;;;;;52.10;31.30;;;9.20;99.90;;;9.17;72.10;94203.28;5002015;28;20870;-60
2021/12/29 08:40:27;;;;;;;60.00;32.73;;;9.20;99.90;;;9.19;72.12;94205.75;5005524;28;20455;-61
2021/12/29 08:42:58;;;;;;;56.17;30.07;;;9.20;99.90;;;9.20;72.01;94202.97;4997415;28;20927;-58
2021/12/29 08:45:26;;;;;;;54.70;32.03;;;9.30;99.90;;;9.22;71.94;94208.91;4997492;28;20447;-58
2021/12/29 08:47:55;;;;;;;60.27;32.13;;;9.30;99.90;;;9.24;71.95;94211.38;4995778;28;20480;-58
2021/12/29 08:50:25;;;;;;;52.80;29.43;;;9.30;99.90;;;9.26;72.07;94207.59;5007771;28;20499;-58
2021/12/29 08:52:53;;;;;;;50.87;29.03;;;9.30;99.90;;;9.28;71.88;94203.06;5003902;28;20473;-60
2021/12/29 08:55:20;;;;;;;53.60;28.87;;;9.30;99.90;;;9.29;72.26;94207.31;5003112;28;20485;-62
2021/12/29 08:57:47;;;;;;;43.40;25.80;;;9.30;99.90;;;9.31;72.00;94199.28;5002777;28;20474;-57
2021/12/29 09:00:17;;;;;;;47.83;25.90;;;9.40;99.90;;;9.35;71.68;94205.09;5003807;28;20529;-58
2021/12/29 09:02:45;;;;;;;55.97;27.20;;;9.40;99.90;;;9.38;71.91;94196.91;5003421;28;20480;-60
2021/12/29 09:05:13;;;;;;;48.67;26.70;;;9.40;99.90;;;9.39;71.98;94194.13;5004744;28;20957;-61
2021/12/29 09:07:42;;;;;;;43.50;25.47;;;9.40;99.90;;;9.41;71.70;94189.56;4999750;28;20478;-58
2021/12/29 09:10:10;;;;;;;48.30;26.80;;;9.50;99.90;;;9.41;71.88;94179.06;4995935;28;20833;-62
2021/12/29 09:12:38;;;;;;;45.90;26.77;;;9.50;99.90;;;9.44;71.71;94177.94;5001303;28;20525;-62
2021/12/29 09:15:06;;;;;;;48.07;25.73;;;9.50;99.90;;;9.46;71.72;94178.59;5004794;28;20463;-61
2021/12/29 09:17:34;;;;;;;47.10;25.23;;;9.50;99.90;;;9.48;71.67;94172.25;5004725;28;21284;-61
2021/12/29 09:20:02;;;;;;;46.20;25.40;;;9.50;99.90;;;9.51;71.56;94165.84;5002144;28;20570;-60
2021/12/29 09:22:30;;;;;;;46.80;25.23;;;9.50;99.90;;;9.56;71.33;94168.03;5005328;28;20478;-62
2021/12/29 09:24:58;;;;;;;54.80;27.77;;;9.60;99.90;;;9.57;71.35;94160.00;5001539;28;20473;-61
2021/12/29 09:27:26;;;;;;;45.30;25.57;;;9.60;99.90;;;9.59;71.51;94160.69;4999779;28;20573;-63
2021/12/29 09:29:55;;;;;;;50.30;28.43;;;9.60;99.90;;;9.62;71.33;94157.75;4996277;28;20522;-60
2021/12/29 09:32:23;;;;;;;51.20;28.90;;;9.60;99.90;;;9.65;71.29;94151.38;4995021;28;20517;-60
2021/12/29 09:34:51;;;;;;;49.33;29.87;;;9.70;99.90;;;9.68;71.18;94154.53;4991753;28;20459;-60
2021/12/29 09:37:18;;;;;;;60.20;29.00;;;9.70;99.90;;;9.71;71.45;94150.75;4996253;28;20638;-61
2021/12/29 09:39:45;;;;;;;53.60;30.30;;;9.70;99.90;;;9.75;71.41;94152.09;4993768;28;20461;-60
2021/12/29 09:42:14;;;;;;;49.27;28.27;;;9.80;99.90;;;9.79;71.24;94150.00;5002509;28;20560;-60
2021/12/29 09:44:42;;;;;;;42.90;25.50;;;9.80;99.90;;;9.80;70.97;94146.41;4995985;28;20528;-62
2021/12/29 09:47:10;;;;;;;54.27;29.30;;;9.80;99.90;;;9.84;71.12;94150.38;4998849;28;20979;-61
2021/12/29 09:49:38;;;;;;;52.53;30.50;;;9.90;99.90;;;9.87;71.06;94150.06;4997388;28;20518;-61
2021/12/29 09:52:06;;;;;;;48.30;29.40;;;9.90;99.90;;;9.87;71.10;94145.63;4999531;28;20523;-60
2021/12/29 09:54:33;;;;;;;48.63;29.90;;;9.90;99.90;;;9.91;70.94;94137.44;4995371;28;20763;-60
2021/12/29 09:57:03;;;;;;;43.87;25.30;;;9.90;99.80;;;9.91;71.06;94135.63;5001355;28;20469;-62
2021/12/29 09:59:31;;;;;;;47.00;27.50;;;10.00;99.30;;;9.92;71.26;94132.03;4998595;28;20486;-61
2021/12/29 10:01:59;;;;;;;45.90;28.60;;;9.90;99.80;;;9.94;70.97;94143.22;4998811;28;20488;-61
2021/12/29 10:04:26;;;;;;;47.87;28.07;;;10.00;99.30;;;9.96;70.85;94137.81;5000783;28;20532;-62
2021/12/29 10:06:54;;;;;;;50.43;26.87;;;10.00;99.30;;;9.95;71.17;94126.47;5005451;28;21017;-61
2021/12/29 10:09:22;;;;;;;58.60;31.20;;;10.00;99.30;;;9.97;71.12;94129.75;5002966;28;20939;-60
2021/12/29 10:11:50;;;;;;;51.70;29.50;;;10.00;99.40;;;10.00;70.92;94121.56;5004197;28;20504;-61
2021/12/29 10:14:18;;;;;;;54.57;29.93;;;10.00;99.30;;;10.02;70.96;94124.91;5005287;28;20481;-60
2021/12/29 10:16:50;;;;;;;52.60;30.07;;;10.00;99.30;;;10.05;70.98;94121.13;5006352;28;20508;-61
2021/12/29 10:19:18;;;;;;;55.03;31.37;;;10.10;99.20;;;10.04;70.94;94120.28;4998036;28;20513;-60
2021/12/29 10:21:48;;;;;;;60.80;32.30;;;10.10;99.20;;;10.07;70.96;94113.06;4995017;28;20540;-62
2021/12/29 10:24:17;;;;;;;53.43;29.17;;;10.10;99.30;;;10.08;70.96;94118.16;4997368;28;20458;-59